sensor_id;sensor_type;location;lat;lon;timestamp;P1;durP1;ratioP1;P2;durP2;ratioP2
22230;SDS011;11284;48.086;-1.652;2023-03-22T00:01:23;10.23;;;2.30;;
22230;SDS011;11284;48.086;-1.652;2023-03-22T00:03:51;11.90;;;2.60;;
22230;SDS011;11284;48.086;-1.652;2023-03-22T00:06:17;11.82;;;2.05;;
22230;SDS011;11284;48.086;-1.652;2023-03-22T00:08:44;11.75;;;2.35;;
22230;SDS011;11284;48.086;-1.652;2023-03-22T00:11:10;12.32;;;2.42;;
22230;SDS011;11284;48.086;-1.652;2023-03-22T00:13:36;12.82;;;2.00;;
22230;SDS011;11284;48.086;-1.652;2023-03-22T00:16:03;14.82;;;2.53;;
22230;SDS011;11284;48.086;-1.652;2023-03-22T00:18:29;11.80;;;2.10;;
22230;SDS011;11284;48.086;-1.652;2023-03-22T00:20:56;15.48;;;2.53;;
22230;SDS011;11284;48.086;-1.652;2023-03-22T00:23:23;11.23;;;1.92;;
22230;SDS011;11284;48.086;-1.652;2023-03-22T00:25:49;14.73;;;2.58;;
22230;SDS011;11284;48.086;-1.652;2023-03-22T00:28:15;12.25;;;2.22;;
22230;SDS011;11284;48.086;-1.652;2023-03-22T00:30:42;12.93;;;2.17;;
22230;SDS011;11284;48.086;-1.652;2023-03-22T00:33:08;12.68;;;2.65;;
22230;SDS011;11284;48.086;-1.652;2023-03-22T00:35:34;12.13;;;1.90;;
22230;SDS011;11284;48.086;-1.652;2023-03-22T00:38:00;12.13;;;2.53;;
22230;SDS011;11284;48.086;-1.652;2023-03-22T00:40:37;11.45;;;2.67;;
22230;SDS011;11284;48.086;-1.652;2023-03-22T00:43:04;10.07;;;2.38;;
22230;SDS011;11284;48.086;-1.652;2023-03-22T00:45:30;14.73;;;2.28;;
22230;SDS011;11284;48.086;-1.652;2023-03-22T00:47:56;15.88;;;2.22;;
22230;SDS011;11284;48.086;-1.652;2023-03-22T00:50:22;12.80;;;2.53;;
22230;SDS011;11284;48.086;-1.652;2023-03-22T00:52:48;12.73;;;2.00;;
22230;SDS011;11284;48.086;-1.652;2023-03-22T00:55:14;13.98;;;2.42;;
22230;SDS011;11284;48.086;-1.652;2023-03-22T00:57:40;14.27;;;2.13;;
22230;SDS011;11284;48.086;-1.652;2023-03-22T01:00:06;12.65;;;2.58;;
22230;SDS011;11284;48.086;-1.652;2023-03-22T01:02:37;15.32;;;2.80;;
22230;SDS011;11284;48.086;-1.652;2023-03-22T01:05:04;14.73;;;2.58;;
22230;SDS011;11284;48.086;-1.652;2023-03-22T01:07:30;14.80;;;2.78;;
22230;SDS011;11284;48.086;-1.652;2023-03-22T01:09:57;12.23;;;1.95;;
22230;SDS011;11284;48.086;-1.652;2023-03-22T01:12:23;14.02;;;2.38;;
22230;SDS011;11284;48.086;-1.652;2023-03-22T01:14:49;14.63;;;2.15;;
22230;SDS011;11284;48.086;-1.652;2023-03-22T01:17:15;13.38;;;2.40;;
22230;SDS011;11284;48.086;-1.652;2023-03-22T01:19:41;11.65;;;1.95;;
22230;SDS011;11284;48.086;-1.652;2023-03-22T01:22:07;9.93;;;2.63;;
22230;SDS011;11284;48.086;-1.652;2023-03-22T01:24:33;11.00;;;2.20;;
22230;SDS011;11284;48.086;-1.652;2023-03-22T01:26:59;13.73;;;2.45;;
22230;SDS011;11284;48.086;-1.652;2023-03-22T01:29:25;19.30;;;2.58;;
22230;SDS011;11284;48.086;-1.652;2023-03-22T01:31:51;11.05;;;1.80;;
22230;SDS011;11284;48.086;-1.652;2023-03-22T01:34:17;10.70;;;2.25;;
22230;SDS011;11284;48.086;-1.652;2023-03-22T01:36:43;11.95;;;2.38;;
22230;SDS011;11284;48.086;-1.652;2023-03-22T01:39:09;14.40;;;2.53;;
22230;SDS011;11284;48.086;-1.652;2023-03-22T01:41:36;11.68;;;2.20;;
22230;SDS011;11284;48.086;-1.652;2023-03-22T01:44:12;14.30;;;2.63;;
22230;SDS011;11284;48.086;-1.652;2023-03-22T01:46:42;14.60;;;2.47;;
22230;SDS011;11284;48.086;-1.652;2023-03-22T01:49:20;13.02;;;1.92;;
22230;SDS011;11284;48.086;-1.652;2023-03-22T01:51:48;12.23;;;2.25;;
22230;SDS011;11284;48.086;-1.652;2023-03-22T01:54:17;15.32;;;2.63;;
22230;SDS011;11284;48.086;-1.652;2023-03-22T01:56:45;15.57;;;2.47;;
22230;SDS011;11284;48.086;-1.652;2023-03-22T01:59:11;14.32;;;2.47;;
22230;SDS011;11284;48.086;-1.652;2023-03-22T02:01:38;12.75;;;2.22;;
22230;SDS011;11284;48.086;-1.652;2023-03-22T02:06:31;14.25;;;2.35;;
22230;SDS011;11284;48.086;-1.652;2023-03-22T02:08:57;13.60;;;2.63;;
22230;SDS011;11284;48.086;-1.652;2023-03-22T02:11:37;16.00;;;2.63;;
22230;SDS011;11284;48.086;-1.652;2023-03-22T02:14:12;13.60;;;2.08;;
22230;SDS011;11284;48.086;-1.652;2023-03-22T02:26:49;8.65;;;1.75;;
22230;SDS011;11284;48.086;-1.652;2023-03-22T02:46:58;13.02;;;2.10;;
22230;SDS011;11284;48.086;-1.652;2023-03-22T02:49:30;12.75;;;2.15;;
22230;SDS011;11284;48.086;-1.652;2023-03-22T02:51:59;10.20;;;1.67;;
22230;SDS011;11284;48.086;-1.652;2023-03-22T02:54:41;15.15;;;2.35;;
22230;SDS011;11284;48.086;-1.652;2023-03-22T02:57:09;10.20;;;2.00;;
22230;SDS011;11284;48.086;-1.652;2023-03-22T02:59:37;15.55;;;2.55;;
22230;SDS011;11284;48.086;-1.652;2023-03-22T03:02:05;12.90;;;2.25;;
22230;SDS011;11284;48.086;-1.652;2023-03-22T03:04:37;16.55;;;2.08;;
22230;SDS011;11284;48.086;-1.652;2023-03-22T03:07:05;13.40;;;2.30;;
22230;SDS011;11284;48.086;-1.652;2023-03-22T03:09:35;11.57;;;2.28;;
22230;SDS011;11284;48.086;-1.652;2023-03-22T03:12:01;11.23;;;2.25;;
22230;SDS011;11284;48.086;-1.652;2023-03-22T03:14:29;13.90;;;2.47;;
22230;SDS011;11284;48.086;-1.652;2023-03-22T03:19:41;12.90;;;1.90;;
22230;SDS011;11284;48.086;-1.652;2023-03-22T03:24:50;10.73;;;2.53;;
22230;SDS011;11284;48.086;-1.652;2023-03-22T03:27:24;12.75;;;2.38;;
22230;SDS011;11284;48.086;-1.652;2023-03-22T03:29:54;16.30;;;2.20;;
22230;SDS011;11284;48.086;-1.652;2023-03-22T03:34:56;15.55;;;2.80;;
22230;SDS011;11284;48.086;-1.652;2023-03-22T03:37:33;19.30;;;2.65;;
22230;SDS011;11284;48.086;-1.652;2023-03-22T03:40:04;12.05;;;2.35;;
22230;SDS011;11284;48.086;-1.652;2023-03-22T03:42:33;15.40;;;2.25;;
22230;SDS011;11284;48.086;-1.652;2023-03-22T03:45:01;15.20;;;2.53;;
22230;SDS011;11284;48.086;-1.652;2023-03-22T03:47:27;14.82;;;2.50;;
22230;SDS011;11284;48.086;-1.652;2023-03-22T03:49:54;13.40;;;2.75;;
22230;SDS011;11284;48.086;-1.652;2023-03-22T03:52:20;12.30;;;2.13;;
22230;SDS011;11284;48.086;-1.652;2023-03-22T03:54:48;14.25;;;2.47;;
22230;SDS011;11284;48.086;-1.652;2023-03-22T03:57:14;12.38;;;2.15;;
22230;SDS011;11284;48.086;-1.652;2023-03-22T03:59:40;16.80;;;2.28;;
22230;SDS011;11284;48.086;-1.652;2023-03-22T04:02:07;12.95;;;2.38;;
22230;SDS011;11284;48.086;-1.652;2023-03-22T04:04:33;12.07;;;2.40;;
22230;SDS011;11284;48.086;-1.652;2023-03-22T04:07:00;10.55;;;2.20;;
22230;SDS011;11284;48.086;-1.652;2023-03-22T04:09:27;14.40;;;2.42;;
22230;SDS011;11284;48.086;-1.652;2023-03-22T04:11:54;10.73;;;2.95;;
22230;SDS011;11284;48.086;-1.652;2023-03-22T04:14:20;13.77;;;2.60;;
22230;SDS011;11284;48.086;-1.652;2023-03-22T04:16:46;15.88;;;2.58;;
22230;SDS011;11284;48.086;-1.652;2023-03-22T04:19:12;13.40;;;2.42;;
22230;SDS011;11284;48.086;-1.652;2023-03-22T04:21:39;15.93;;;2.75;;
22230;SDS011;11284;48.086;-1.652;2023-03-22T04:24:05;15.25;;;3.03;;
22230;SDS011;11284;48.086;-1.652;2023-03-22T04:26:31;16.40;;;2.78;;
22230;SDS011;11284;48.086;-1.652;2023-03-22T04:28:57;15.00;;;2.60;;
22230;SDS011;11284;48.086;-1.652;2023-03-22T04:31:24;16.20;;;2.47;;
22230;SDS011;11284;48.086;-1.652;2023-03-22T04:33:50;14.90;;;2.65;;
22230;SDS011;11284;48.086;-1.652;2023-03-22T04:36:19;13.60;;;2.65;;
22230;SDS011;11284;48.086;-1.652;2023-03-22T04:38:45;13.40;;;2.50;;
22230;SDS011;11284;48.086;-1.652;2023-03-22T04:41:11;16.83;;;3.08;;
22230;SDS011;11284;48.086;-1.652;2023-03-22T04:43:37;13.77;;;2.90;;
22230;SDS011;11284;48.086;-1.652;2023-03-22T04:46:04;16.67;;;3.20;;
22230;SDS011;11284;48.086;-1.652;2023-03-22T04:48:34;13.18;;;2.60;;
22230;SDS011;11284;48.086;-1.652;2023-03-22T04:51:00;13.18;;;2.20;;
22230;SDS011;11284;48.086;-1.652;2023-03-22T04:53:28;16.45;;;2.88;;
22230;SDS011;11284;48.086;-1.652;2023-03-22T04:55:55;14.95;;;2.75;;
22230;SDS011;11284;48.086;-1.652;2023-03-22T04:58:22;15.18;;;2.90;;
22230;SDS011;11284;48.086;-1.652;2023-03-22T05:00:48;15.88;;;2.50;;
22230;SDS011;11284;48.086;-1.652;2023-03-22T05:03:16;16.33;;;2.90;;
22230;SDS011;11284;48.086;-1.652;2023-03-22T05:05:52;15.88;;;2.80;;
22230;SDS011;11284;48.086;-1.652;2023-03-22T05:08:19;15.00;;;2.88;;
22230;SDS011;11284;48.086;-1.652;2023-03-22T05:10:45;17.65;;;3.00;;
22230;SDS011;11284;48.086;-1.652;2023-03-22T05:13:11;20.05;;;3.05;;
22230;SDS011;11284;48.086;-1.652;2023-03-22T05:15:37;13.32;;;2.50;;
22230;SDS011;11284;48.086;-1.652;2023-03-22T05:18:05;11.40;;;2.28;;
22230;SDS011;11284;48.086;-1.652;2023-03-22T05:20:31;14.23;;;2.78;;
22230;SDS011;11284;48.086;-1.652;2023-03-22T05:22:57;13.85;;;2.60;;
22230;SDS011;11284;48.086;-1.652;2023-03-22T05:25:26;12.55;;;2.70;;
22230;SDS011;11284;48.086;-1.652;2023-03-22T05:27:52;16.48;;;3.05;;
22230;SDS011;11284;48.086;-1.652;2023-03-22T05:30:19;13.18;;;2.63;;
22230;SDS011;11284;48.086;-1.652;2023-03-22T05:32:45;15.95;;;2.78;;
22230;SDS011;11284;48.086;-1.652;2023-03-22T05:35:11;13.65;;;2.08;;
22230;SDS011;11284;48.086;-1.652;2023-03-22T05:37:38;15.65;;;2.40;;
22230;SDS011;11284;48.086;-1.652;2023-03-22T05:40:04;12.18;;;2.65;;
22230;SDS011;11284;48.086;-1.652;2023-03-22T05:42:34;16.88;;;2.35;;
22230;SDS011;11284;48.086;-1.652;2023-03-22T05:45:00;13.63;;;2.63;;
22230;SDS011;11284;48.086;-1.652;2023-03-22T05:47:26;13.00;;;2.35;;
22230;SDS011;11284;48.086;-1.652;2023-03-22T05:49:53;12.90;;;2.15;;
22230;SDS011;11284;48.086;-1.652;2023-03-22T05:52:19;12.15;;;2.67;;
22230;SDS011;11284;48.086;-1.652;2023-03-22T05:54:45;12.50;;;2.33;;
22230;SDS011;11284;48.086;-1.652;2023-03-22T05:57:11;15.35;;;2.17;;
22230;SDS011;11284;48.086;-1.652;2023-03-22T05:59:37;11.30;;;2.13;;
22230;SDS011;11284;48.086;-1.652;2023-03-22T06:02:03;11.57;;;2.40;;
22230;SDS011;11284;48.086;-1.652;2023-03-22T06:04:29;10.23;;;2.10;;
22230;SDS011;11284;48.086;-1.652;2023-03-22T06:06:55;17.90;;;2.67;;
22230;SDS011;11284;48.086;-1.652;2023-03-22T06:09:21;8.95;;;2.25;;
22230;SDS011;11284;48.086;-1.652;2023-03-22T06:11:47;10.20;;;1.88;;
22230;SDS011;11284;48.086;-1.652;2023-03-22T06:14:13;14.20;;;3.00;;
22230;SDS011;11284;48.086;-1.652;2023-03-22T06:16:39;13.45;;;2.65;;
22230;SDS011;11284;48.086;-1.652;2023-03-22T06:19:05;8.38;;;2.08;;
22230;SDS011;11284;48.086;-1.652;2023-03-22T06:21:31;11.45;;;2.13;;
22230;SDS011;11284;48.086;-1.652;2023-03-22T06:23:57;12.32;;;2.33;;
22230;SDS011;11284;48.086;-1.652;2023-03-22T06:26:23;13.20;;;2.00;;
22230;SDS011;11284;48.086;-1.652;2023-03-22T06:28:50;10.68;;;2.13;;
22230;SDS011;11284;48.086;-1.652;2023-03-22T06:31:16;10.55;;;2.50;;
22230;SDS011;11284;48.086;-1.652;2023-03-22T06:33:42;10.65;;;2.00;;
22230;SDS011;11284;48.086;-1.652;2023-03-22T06:36:09;9.95;;;1.98;;
22230;SDS011;11284;48.086;-1.652;2023-03-22T06:38:35;10.95;;;1.90;;
22230;SDS011;11284;48.086;-1.652;2023-03-22T06:41:01;11.50;;;2.13;;
22230;SDS011;11284;48.086;-1.652;2023-03-22T06:43:27;8.20;;;1.98;;
22230;SDS011;11284;48.086;-1.652;2023-03-22T06:45:53;9.93;;;1.98;;
22230;SDS011;11284;48.086;-1.652;2023-03-22T06:48:21;10.10;;;2.63;;
22230;SDS011;11284;48.086;-1.652;2023-03-22T06:50:47;9.95;;;1.75;;
22230;SDS011;11284;48.086;-1.652;2023-03-22T06:53:13;12.93;;;2.17;;
22230;SDS011;11284;48.086;-1.652;2023-03-22T06:55:39;10.93;;;1.85;;
22230;SDS011;11284;48.086;-1.652;2023-03-22T06:58:05;11.77;;;2.20;;
22230;SDS011;11284;48.086;-1.652;2023-03-22T07:00:31;10.77;;;2.15;;
22230;SDS011;11284;48.086;-1.652;2023-03-22T07:02:58;12.15;;;2.38;;
22230;SDS011;11284;48.086;-1.652;2023-03-22T07:05:25;7.22;;;1.50;;
22230;SDS011;11284;48.086;-1.652;2023-03-22T07:07:51;16.35;;;5.10;;
22230;SDS011;11284;48.086;-1.652;2023-03-22T07:10:17;10.30;;;1.88;;
22230;SDS011;11284;48.086;-1.652;2023-03-22T07:12:43;10.02;;;2.00;;
22230;SDS011;11284;48.086;-1.652;2023-03-22T07:15:09;9.07;;;1.73;;
22230;SDS011;11284;48.086;-1.652;2023-03-22T07:17:35;11.60;;;2.83;;
22230;SDS011;11284;48.086;-1.652;2023-03-22T07:20:01;9.05;;;1.95;;
22230;SDS011;11284;48.086;-1.652;2023-03-22T07:22:28;11.13;;;1.92;;
22230;SDS011;11284;48.086;-1.652;2023-03-22T07:24:54;8.85;;;1.35;;
22230;SDS011;11284;48.086;-1.652;2023-03-22T07:27:20;6.97;;;1.75;;
22230;SDS011;11284;48.086;-1.652;2023-03-22T07:29:46;8.63;;;1.40;;
22230;SDS011;11284;48.086;-1.652;2023-03-22T07:32:12;8.55;;;1.73;;
22230;SDS011;11284;48.086;-1.652;2023-03-22T07:34:38;9.52;;;1.73;;
22230;SDS011;11284;48.086;-1.652;2023-03-22T07:37:04;5.93;;;1.30;;
22230;SDS011;11284;48.086;-1.652;2023-03-22T07:39:32;9.45;;;1.95;;
22230;SDS011;11284;48.086;-1.652;2023-03-22T07:41:58;6.18;;;1.80;;
22230;SDS011;11284;48.086;-1.652;2023-03-22T07:44:25;8.10;;;1.48;;
22230;SDS011;11284;48.086;-1.652;2023-03-22T07:46:51;7.38;;;1.60;;
22230;SDS011;11284;48.086;-1.652;2023-03-22T07:49:17;7.57;;;2.05;;
22230;SDS011;11284;48.086;-1.652;2023-03-22T07:51:43;6.72;;;1.98;;
22230;SDS011;11284;48.086;-1.652;2023-03-22T07:54:09;9.05;;;2.05;;
22230;SDS011;11284;48.086;-1.652;2023-03-22T07:56:35;9.23;;;1.52;;
22230;SDS011;11284;48.086;-1.652;2023-03-22T07:59:01;9.32;;;1.65;;
22230;SDS011;11284;48.086;-1.652;2023-03-22T08:01:27;7.63;;;1.77;;
22230;SDS011;11284;48.086;-1.652;2023-03-22T08:03:53;8.90;;;1.52;;
22230;SDS011;11284;48.086;-1.652;2023-03-22T08:06:19;8.40;;;2.08;;
22230;SDS011;11284;48.086;-1.652;2023-03-22T08:08:45;7.30;;;1.80;;
22230;SDS011;11284;48.086;-1.652;2023-03-22T08:11:11;8.52;;;2.00;;
22230;SDS011;11284;48.086;-1.652;2023-03-22T08:13:38;10.70;;;3.65;;
22230;SDS011;11284;48.086;-1.652;2023-03-22T08:16:04;10.48;;;3.20;;
22230;SDS011;11284;48.086;-1.652;2023-03-22T08:18:31;12.35;;;3.38;;
22230;SDS011;11284;48.086;-1.652;2023-03-22T08:20:58;10.75;;;3.60;;
22230;SDS011;11284;48.086;-1.652;2023-03-22T08:23:25;11.30;;;4.22;;
22230;SDS011;11284;48.086;-1.652;2023-03-22T08:25:52;12.23;;;2.80;;
22230;SDS011;11284;48.086;-1.652;2023-03-22T08:28:18;10.02;;;3.03;;
22230;SDS011;11284;48.086;-1.652;2023-03-22T08:30:45;9.73;;;2.22;;
22230;SDS011;11284;48.086;-1.652;2023-03-22T08:33:11;9.57;;;2.38;;
22230;SDS011;11284;48.086;-1.652;2023-03-22T08:35:37;8.75;;;2.40;;
22230;SDS011;11284;48.086;-1.652;2023-03-22T08:38:03;9.18;;;2.63;;
22230;SDS011;11284;48.086;-1.652;2023-03-22T08:40:30;14.85;;;3.60;;
22230;SDS011;11284;48.086;-1.652;2023-03-22T08:42:56;10.95;;;2.95;;
22230;SDS011;11284;48.086;-1.652;2023-03-22T08:45:22;12.23;;;2.85;;
22230;SDS011;11284;48.086;-1.652;2023-03-22T08:47:48;9.60;;;2.65;;
22230;SDS011;11284;48.086;-1.652;2023-03-22T08:50:14;13.13;;;2.58;;
22230;SDS011;11284;48.086;-1.652;2023-03-22T08:52:40;9.55;;;2.60;;
22230;SDS011;11284;48.086;-1.652;2023-03-22T08:55:07;11.32;;;2.03;;
22230;SDS011;11284;48.086;-1.652;2023-03-22T08:57:34;10.18;;;2.38;;
22230;SDS011;11284;48.086;-1.652;2023-03-22T09:00:00;10.30;;;2.38;;
22230;SDS011;11284;48.086;-1.652;2023-03-22T09:02:26;13.50;;;2.30;;
22230;SDS011;11284;48.086;-1.652;2023-03-22T09:04:53;10.05;;;2.08;;
22230;SDS011;11284;48.086;-1.652;2023-03-22T09:07:19;9.18;;;2.05;;
22230;SDS011;11284;48.086;-1.652;2023-03-22T09:09:45;10.80;;;2.38;;
22230;SDS011;11284;48.086;-1.652;2023-03-22T09:12:11;11.85;;;2.22;;
22230;SDS011;11284;48.086;-1.652;2023-03-22T09:14:38;10.82;;;2.72;;
22230;SDS011;11284;48.086;-1.652;2023-03-22T09:17:04;15.65;;;2.95;;
22230;SDS011;11284;48.086;-1.652;2023-03-22T09:19:30;11.27;;;2.47;;
22230;SDS011;11284;48.086;-1.652;2023-03-22T09:21:56;11.95;;;2.80;;
22230;SDS011;11284;48.086;-1.652;2023-03-22T09:24:22;14.45;;;3.25;;
22230;SDS011;11284;48.086;-1.652;2023-03-22T09:26:48;12.75;;;2.75;;
22230;SDS011;11284;48.086;-1.652;2023-03-22T09:29:15;9.95;;;2.38;;
22230;SDS011;11284;48.086;-1.652;2023-03-22T09:31:41;12.57;;;2.53;;
22230;SDS011;11284;48.086;-1.652;2023-03-22T09:34:08;12.55;;;3.20;;
22230;SDS011;11284;48.086;-1.652;2023-03-22T09:36:34;10.68;;;2.65;;
22230;SDS011;11284;48.086;-1.652;2023-03-22T09:39:01;13.13;;;2.38;;
22230;SDS011;11284;48.086;-1.652;2023-03-22T09:43:57;14.82;;;2.45;;
22230;SDS011;11284;48.086;-1.652;2023-03-22T09:46:28;13.40;;;2.20;;
22230;SDS011;11284;48.086;-1.652;2023-03-22T09:48:55;14.77;;;2.47;;
22230;SDS011;11284;48.086;-1.652;2023-03-22T09:51:28;15.13;;;2.63;;
22230;SDS011;11284;48.086;-1.652;2023-03-22T09:56:22;13.70;;;2.50;;
22230;SDS011;11284;48.086;-1.652;2023-03-22T10:04:09;14.93;;;3.55;;
22230;SDS011;11284;48.086;-1.652;2023-03-22T10:06:38;10.07;;;2.70;;
22230;SDS011;11284;48.086;-1.652;2023-03-22T10:11:44;14.55;;;4.50;;
22230;SDS011;11284;48.086;-1.652;2023-03-22T10:14:28;9.60;;;2.92;;
22230;SDS011;11284;48.086;-1.652;2023-03-22T10:16:56;10.55;;;2.55;;
22230;SDS011;11284;48.086;-1.652;2023-03-22T10:19:27;12.35;;;2.38;;
22230;SDS011;11284;48.086;-1.652;2023-03-22T10:21:55;10.45;;;2.50;;
22230;SDS011;11284;48.086;-1.652;2023-03-22T10:24:23;10.88;;;2.50;;
22230;SDS011;11284;48.086;-1.652;2023-03-22T10:26:50;10.93;;;2.22;;
22230;SDS011;11284;48.086;-1.652;2023-03-22T10:29:25;10.50;;;1.90;;
22230;SDS011;11284;48.086;-1.652;2023-03-22T10:31:53;11.48;;;2.10;;
22230;SDS011;11284;48.086;-1.652;2023-03-22T10:34:25;11.15;;;1.90;;
22230;SDS011;11284;48.086;-1.652;2023-03-22T10:36:57;9.63;;;2.25;;
22230;SDS011;11284;48.086;-1.652;2023-03-22T10:41:54;7.25;;;1.80;;
22230;SDS011;11284;48.086;-1.652;2023-03-22T10:44:21;6.35;;;1.60;;
22230;SDS011;11284;48.086;-1.652;2023-03-22T10:46:48;5.60;;;1.50;;
22230;SDS011;11284;48.086;-1.652;2023-03-22T10:49:49;6.15;;;1.80;;
22230;SDS011;11284;48.086;-1.652;2023-03-22T10:54:53;8.95;;;3.33;;
22230;SDS011;11284;48.086;-1.652;2023-03-22T10:57:21;6.97;;;1.70;;
22230;SDS011;11284;48.086;-1.652;2023-03-22T10:59:48;6.55;;;1.45;;
22230;SDS011;11284;48.086;-1.652;2023-03-22T11:04:47;5.65;;;1.45;;
22230;SDS011;11284;48.086;-1.652;2023-03-22T11:07:15;5.80;;;1.85;;
22230;SDS011;11284;48.086;-1.652;2023-03-22T11:09:56;6.65;;;1.52;;
22230;SDS011;11284;48.086;-1.652;2023-03-22T11:12:22;4.63;;;1.60;;
22230;SDS011;11284;48.086;-1.652;2023-03-22T11:14:48;4.70;;;1.40;;
22230;SDS011;11284;48.086;-1.652;2023-03-22T11:17:16;6.22;;;1.52;;
22230;SDS011;11284;48.086;-1.652;2023-03-22T11:19:54;5.72;;;1.50;;
22230;SDS011;11284;48.086;-1.652;2023-03-22T11:22:41;5.65;;;1.80;;
22230;SDS011;11284;48.086;-1.652;2023-03-22T11:25:15;4.85;;;1.35;;
22230;SDS011;11284;48.086;-1.652;2023-03-22T11:28:17;5.10;;;1.80;;
22230;SDS011;11284;48.086;-1.652;2023-03-22T11:30:34;6.63;;;1.70;;
22230;SDS011;11284;48.086;-1.652;2023-03-22T11:33:14;8.15;;;1.55;;
22230;SDS011;11284;48.086;-1.652;2023-03-22T11:35:42;5.63;;;1.63;;
22230;SDS011;11284;48.086;-1.652;2023-03-22T11:38:14;7.45;;;1.70;;
22230;SDS011;11284;48.086;-1.652;2023-03-22T11:40:48;6.10;;;1.73;;
22230;SDS011;11284;48.086;-1.652;2023-03-22T11:43:19;6.63;;;1.67;;
22230;SDS011;11284;48.086;-1.652;2023-03-22T11:45:48;8.02;;;2.33;;
22230;SDS011;11284;48.086;-1.652;2023-03-22T11:48:16;7.55;;;2.00;;
22230;SDS011;11284;48.086;-1.652;2023-03-22T11:50:43;8.55;;;2.13;;
22230;SDS011;11284;48.086;-1.652;2023-03-22T11:53:11;8.77;;;2.60;;
22230;SDS011;11284;48.086;-1.652;2023-03-22T11:55:38;10.15;;;2.42;;
22230;SDS011;11284;48.086;-1.652;2023-03-22T11:58:06;7.03;;;2.40;;
22230;SDS011;11284;48.086;-1.652;2023-03-22T12:00:35;9.35;;;2.25;;
22230;SDS011;11284;48.086;-1.652;2023-03-22T12:03:03;9.15;;;2.42;;
22230;SDS011;11284;48.086;-1.652;2023-03-22T12:05:31;9.38;;;2.90;;
22230;SDS011;11284;48.086;-1.652;2023-03-22T12:10:40;8.55;;;2.67;;
22230;SDS011;11284;48.086;-1.652;2023-03-22T12:13:14;8.88;;;2.30;;
22230;SDS011;11284;48.086;-1.652;2023-03-22T12:15:42;10.10;;;2.83;;
22230;SDS011;11284;48.086;-1.652;2023-03-22T12:20:51;8.48;;;2.78;;
22230;SDS011;11284;48.086;-1.652;2023-03-22T12:23:22;10.68;;;2.67;;
22230;SDS011;11284;48.086;-1.652;2023-03-22T12:25:50;10.13;;;2.63;;
22230;SDS011;11284;48.086;-1.652;2023-03-22T12:28:19;9.45;;;2.50;;
22230;SDS011;11284;48.086;-1.652;2023-03-22T12:30:48;13.07;;;3.10;;
22230;SDS011;11284;48.086;-1.652;2023-03-22T12:35:42;12.10;;;3.50;;
22230;SDS011;11284;48.086;-1.652;2023-03-22T12:38:13;10.55;;;3.20;;
22230;SDS011;11284;48.086;-1.652;2023-03-22T12:40:41;13.35;;;3.33;;
22230;SDS011;11284;48.086;-1.652;2023-03-22T12:45:51;9.73;;;2.60;;
22230;SDS011;11284;48.086;-1.652;2023-03-22T12:48:19;14.10;;;2.83;;
22230;SDS011;11284;48.086;-1.652;2023-03-22T12:50:47;12.05;;;2.97;;
22230;SDS011;11284;48.086;-1.652;2023-03-22T12:53:16;8.95;;;2.42;;
22230;SDS011;11284;48.086;-1.652;2023-03-22T12:55:43;9.90;;;2.30;;
22230;SDS011;11284;48.086;-1.652;2023-03-22T12:58:14;9.60;;;2.50;;
22230;SDS011;11284;48.086;-1.652;2023-03-22T13:00:43;11.90;;;2.45;;
22230;SDS011;11284;48.086;-1.652;2023-03-22T13:05:48;8.52;;;2.65;;
22230;SDS011;11284;48.086;-1.652;2023-03-22T13:08:21;12.15;;;2.65;;
22230;SDS011;11284;48.086;-1.652;2023-03-22T13:21:14;8.15;;;2.22;;
22230;SDS011;11284;48.086;-1.652;2023-03-22T13:26:19;7.57;;;1.83;;
22230;SDS011;11284;48.086;-1.652;2023-03-22T13:28:54;7.88;;;1.80;;
22230;SDS011;11284;48.086;-1.652;2023-03-22T13:31:35;5.60;;;1.90;;
22230;SDS011;11284;48.086;-1.652;2023-03-22T13:34:01;5.63;;;1.98;;
22230;SDS011;11284;48.086;-1.652;2023-03-22T13:36:29;7.13;;;1.85;;
22230;SDS011;11284;48.086;-1.652;2023-03-22T13:38:59;6.18;;;2.08;;
22230;SDS011;11284;48.086;-1.652;2023-03-22T13:41:28;5.53;;;1.60;;
22230;SDS011;11284;48.086;-1.652;2023-03-22T13:43:55;5.63;;;1.52;;
22230;SDS011;11284;48.086;-1.652;2023-03-22T13:56:23;7.70;;;1.85;;
22230;SDS011;11284;48.086;-1.652;2023-03-22T13:58:52;4.22;;;1.48;;
22230;SDS011;11284;48.086;-1.652;2023-03-22T14:03:44;4.60;;;1.55;;
22230;SDS011;11284;48.086;-1.652;2023-03-22T14:06:22;4.18;;;1.38;;
22230;SDS011;11284;48.086;-1.652;2023-03-22T14:08:52;4.85;;;1.33;;
22230;SDS011;11284;48.086;-1.652;2023-03-22T14:11:21;3.88;;;1.13;;
22230;SDS011;11284;48.086;-1.652;2023-03-22T14:13:49;3.42;;;1.13;;
22230;SDS011;11284;48.086;-1.652;2023-03-22T14:19:01;5.22;;;1.20;;
22230;SDS011;11284;48.086;-1.652;2023-03-22T14:21:37;3.97;;;1.10;;
22230;SDS011;11284;48.086;-1.652;2023-03-22T14:24:04;5.18;;;1.52;;
22230;SDS011;11284;48.086;-1.652;2023-03-22T14:26:39;5.40;;;1.50;;
22230;SDS011;11284;48.086;-1.652;2023-03-22T14:31:31;3.80;;;0.90;;
22230;SDS011;11284;48.086;-1.652;2023-03-22T14:34:07;5.75;;;1.27;;
22230;SDS011;11284;48.086;-1.652;2023-03-22T14:36:37;5.13;;;1.23;;
22230;SDS011;11284;48.086;-1.652;2023-03-22T14:39:19;5.70;;;1.30;;
22230;SDS011;11284;48.086;-1.652;2023-03-22T14:42:46;4.93;;;1.33;;
22230;SDS011;11284;48.086;-1.652;2023-03-22T14:44:42;5.45;;;1.33;;
22230;SDS011;11284;48.086;-1.652;2023-03-22T14:47:16;3.38;;;0.98;;
22230;SDS011;11284;48.086;-1.652;2023-03-22T14:49:43;4.45;;;1.17;;
22230;SDS011;11284;48.086;-1.652;2023-03-22T14:52:19;4.30;;;1.20;;
22230;SDS011;11284;48.086;-1.652;2023-03-22T14:54:47;4.75;;;0.95;;
22230;SDS011;11284;48.086;-1.652;2023-03-22T14:57:14;3.03;;;1.10;;
22230;SDS011;11284;48.086;-1.652;2023-03-22T14:59:42;5.18;;;1.45;;
22230;SDS011;11284;48.086;-1.652;2023-03-22T15:04:48;4.78;;;1.00;;
22230;SDS011;11284;48.086;-1.652;2023-03-22T15:07:16;5.75;;;1.35;;
22230;SDS011;11284;48.086;-1.652;2023-03-22T15:09:42;5.82;;;1.20;;
22230;SDS011;11284;48.086;-1.652;2023-03-22T15:12:08;5.00;;;1.40;;
22230;SDS011;11284;48.086;-1.652;2023-03-22T15:14:35;3.70;;;1.00;;
22230;SDS011;11284;48.086;-1.652;2023-03-22T15:17:01;5.72;;;1.13;;
22230;SDS011;11284;48.086;-1.652;2023-03-22T15:19:33;3.42;;;1.00;;
22230;SDS011;11284;48.086;-1.652;2023-03-22T15:24:32;5.53;;;1.40;;
22230;SDS011;11284;48.086;-1.652;2023-03-22T15:27:10;4.18;;;1.25;;
22230;SDS011;11284;48.086;-1.652;2023-03-22T15:29:39;3.47;;;1.13;;
22230;SDS011;11284;48.086;-1.652;2023-03-22T15:32:08;3.78;;;1.08;;
22230;SDS011;11284;48.086;-1.652;2023-03-22T15:34:37;6.88;;;1.40;;
22230;SDS011;11284;48.086;-1.652;2023-03-22T15:37:03;3.22;;;1.23;;
22230;SDS011;11284;48.086;-1.652;2023-03-22T15:39:35;5.85;;;1.75;;
22230;SDS011;11284;48.086;-1.652;2023-03-22T15:42:43;4.75;;;1.42;;
22230;SDS011;11284;48.086;-1.652;2023-03-22T15:47:45;4.03;;;1.50;;
22230;SDS011;11284;48.086;-1.652;2023-03-22T15:50:11;6.35;;;1.90;;
22230;SDS011;11284;48.086;-1.652;2023-03-22T15:53:22;6.65;;;1.88;;
22230;SDS011;11284;48.086;-1.652;2023-03-22T15:55:35;5.80;;;2.35;;
22230;SDS011;11284;48.086;-1.652;2023-03-22T15:58:02;5.05;;;1.90;;
22230;SDS011;11284;48.086;-1.652;2023-03-22T16:00:33;6.50;;;2.20;;
22230;SDS011;11284;48.086;-1.652;2023-03-22T16:05:35;5.43;;;2.60;;
22230;SDS011;11284;48.086;-1.652;2023-03-22T16:08:02;7.35;;;2.40;;
22230;SDS011;11284;48.086;-1.652;2023-03-22T16:10:29;7.13;;;2.70;;
22230;SDS011;11284;48.086;-1.652;2023-03-22T16:12:55;6.10;;;2.25;;
22230;SDS011;11284;48.086;-1.652;2023-03-22T16:15:23;4.45;;;2.15;;
22230;SDS011;11284;48.086;-1.652;2023-03-22T16:17:49;5.93;;;2.30;;
22230;SDS011;11284;48.086;-1.652;2023-03-22T16:20:17;6.65;;;2.00;;
22230;SDS011;11284;48.086;-1.652;2023-03-22T16:22:44;6.32;;;1.95;;
22230;SDS011;11284;48.086;-1.652;2023-03-22T16:25:18;7.53;;;2.13;;